sensor_id;sensor_type;location;lat;lon;timestamp;temperature;humidity
37222;DHT22;23119;51.842;-2.230;2022-10-16T00:01:32;12.10;99.90
37222;DHT22;23119;51.842;-2.230;2022-10-16T00:04:00;12.10;99.90
37222;DHT22;23119;51.842;-2.230;2022-10-16T00:06:29;12.10;99.90
37222;DHT22;23119;51.842;-2.230;2022-10-16T00:08:58;12.10;99.90
37222;DHT22;23119;51.842;-2.230;2022-10-16T00:11:36;12.00;99.90
37222;DHT22;23119;51.842;-2.230;2022-10-16T00:14:04;12.00;99.90
37222;DHT22;23119;51.842;-2.230;2022-10-16T00:16:36;12.00;99.90
37222;DHT22;23119;51.842;-2.230;2022-10-16T00:19:03;12.00;99.90
37222;DHT22;23119;51.842;-2.230;2022-10-16T00:21:33;12.00;99.90
37222;DHT22;23119;51.842;-2.230;2022-10-16T00:24:05;12.00;99.90
37222;DHT22;23119;51.842;-2.230;2022-10-16T00:26:35;12.00;99.90
37222;DHT22;23119;51.842;-2.230;2022-10-16T00:29:02;12.00;99.90
37222;DHT22;23119;51.842;-2.230;2022-10-16T00:31:36;12.00;99.90
37222;DHT22;23119;51.842;-2.230;2022-10-16T00:34:05;12.10;99.90
37222;DHT22;23119;51.842;-2.230;2022-10-16T00:36:31;12.10;99.90
37222;DHT22;23119;51.842;-2.230;2022-10-16T00:38:57;12.20;99.90
37222;DHT22;23119;51.842;-2.230;2022-10-16T00:41:30;12.20;99.90
37222;DHT22;23119;51.842;-2.230;2022-10-16T00:44:00;12.10;99.90
37222;DHT22;23119;51.842;-2.230;2022-10-16T00:46:38;12.10;99.90
37222;DHT22;23119;51.842;-2.230;2022-10-16T00:49:20;12.10;99.90
37222;DHT22;23119;51.842;-2.230;2022-10-16T00:52:00;12.00;99.90
37222;DHT22;23119;51.842;-2.230;2022-10-16T00:54:31;11.90;99.90
37222;DHT22;23119;51.842;-2.230;2022-10-16T00:57:02;11.80;99.90
37222;DHT22;23119;51.842;-2.230;2022-10-16T00:59:32;11.70;99.90
37222;DHT22;23119;51.842;-2.230;2022-10-16T01:02:02;11.60;99.90
37222;DHT22;23119;51.842;-2.230;2022-10-16T01:04:35;11.60;99.90
37222;DHT22;23119;51.842;-2.230;2022-10-16T01:18:11;11.20;99.90
37222;DHT22;23119;51.842;-2.230;2022-10-16T01:21:04;11.20;99.90
37222;DHT22;23119;51.842;-2.230;2022-10-16T01:28:56;11.10;99.90
37222;DHT22;23119;51.842;-2.230;2022-10-16T01:31:27;11.10;99.90
37222;DHT22;23119;51.842;-2.230;2022-10-16T01:34:06;11.10;99.90
37222;DHT22;23119;51.842;-2.230;2022-10-16T01:36:42;11.00;99.90
37222;DHT22;23119;51.842;-2.230;2022-10-16T01:39:12;11.00;99.90
37222;DHT22;23119;51.842;-2.230;2022-10-16T01:41:45;11.00;99.90
37222;DHT22;23119;51.842;-2.230;2022-10-16T01:44:20;11.00;99.90
37222;DHT22;23119;51.842;-2.230;2022-10-16T01:46:52;11.10;99.90
37222;DHT22;23119;51.842;-2.230;2022-10-16T01:49:22;11.10;99.90
37222;DHT22;23119;51.842;-2.230;2022-10-16T01:52:00;11.10;99.90
37222;DHT22;23119;51.842;-2.230;2022-10-16T01:54:33;11.10;99.90
37222;DHT22;23119;51.842;-2.230;2022-10-16T01:57:31;11.20;99.90
37222;DHT22;23119;51.842;-2.230;2022-10-16T02:00:01;11.20;99.90
37222;DHT22;23119;51.842;-2.230;2022-10-16T02:02:29;11.20;99.90
37222;DHT22;23119;51.842;-2.230;2022-10-16T02:05:14;11.20;99.90
37222;DHT22;23119;51.842;-2.230;2022-10-16T02:07:41;11.20;99.90
37222;DHT22;23119;51.842;-2.230;2022-10-16T02:10:08;11.30;99.90
37222;DHT22;23119;51.842;-2.230;2022-10-16T02:12:37;11.30;99.90
37222;DHT22;23119;51.842;-2.230;2022-10-16T02:15:12;11.30;99.90
37222;DHT22;23119;51.842;-2.230;2022-10-16T02:17:38;11.30;99.90
37222;DHT22;23119;51.842;-2.230;2022-10-16T02:20:06;11.40;99.90
37222;DHT22;23119;51.842;-2.230;2022-10-16T02:22:36;11.40;99.90
37222;DHT22;23119;51.842;-2.230;2022-10-16T02:28:44;11.30;99.90
37222;DHT22;23119;51.842;-2.230;2022-10-16T02:31:24;11.30;99.90
37222;DHT22;23119;51.842;-2.230;2022-10-16T02:33:54;11.30;99.90
37222;DHT22;23119;51.842;-2.230;2022-10-16T02:36:25;11.20;99.90
37222;DHT22;23119;51.842;-2.230;2022-10-16T02:38:56;11.20;99.90
37222;DHT22;23119;51.842;-2.230;2022-10-16T02:41:50;11.30;99.90
37222;DHT22;23119;51.842;-2.230;2022-10-16T02:44:19;11.30;99.90
37222;DHT22;23119;51.842;-2.230;2022-10-16T02:46:52;11.20;99.90
37222;DHT22;23119;51.842;-2.230;2022-10-16T02:49:22;11.20;99.90
37222;DHT22;23119;51.842;-2.230;2022-10-16T02:51:50;11.20;99.90
37222;DHT22;23119;51.842;-2.230;2022-10-16T02:54:19;11.20;99.90
37222;DHT22;23119;51.842;-2.230;2022-10-16T02:56:44;12.10;99.90
37222;DHT22;23119;51.842;-2.230;2022-10-16T02:59:15;11.20;99.90
37222;DHT22;23119;51.842;-2.230;2022-10-16T03:01:41;11.20;99.90
37222;DHT22;23119;51.842;-2.230;2022-10-16T03:04:09;11.20;99.90
37222;DHT22;23119;51.842;-2.230;2022-10-16T03:06:40;11.20;99.90
37222;DHT22;23119;51.842;-2.230;2022-10-16T03:09:08;11.20;99.90
37222;DHT22;23119;51.842;-2.230;2022-10-16T03:11:36;11.20;99.90
37222;DHT22;23119;51.842;-2.230;2022-10-16T03:14:04;11.20;99.90
37222;DHT22;23119;51.842;-2.230;2022-10-16T03:16:32;11.30;99.90
37222;DHT22;23119;51.842;-2.230;2022-10-16T03:19:01;11.20;99.90
37222;DHT22;23119;51.842;-2.230;2022-10-16T03:21:29;11.20;99.90
37222;DHT22;23119;51.842;-2.230;2022-10-16T03:23:55;11.30;99.90
37222;DHT22;23119;51.842;-2.230;2022-10-16T03:26:21;11.30;99.90
37222;DHT22;23119;51.842;-2.230;2022-10-16T03:28:49;11.30;99.90
37222;DHT22;23119;51.842;-2.230;2022-10-16T03:31:17;11.30;99.90
37222;DHT22;23119;51.842;-2.230;2022-10-16T03:33:48;11.30;99.90
37222;DHT22;23119;51.842;-2.230;2022-10-16T03:36:16;11.40;99.90
37222;DHT22;23119;51.842;-2.230;2022-10-16T03:38:44;11.30;99.90
37222;DHT22;23119;51.842;-2.230;2022-10-16T03:41:13;11.40;99.90
37222;DHT22;23119;51.842;-2.230;2022-10-16T03:43:41;11.40;99.90
37222;DHT22;23119;51.842;-2.230;2022-10-16T03:46:10;11.40;99.90
37222;DHT22;23119;51.842;-2.230;2022-10-16T03:48:38;11.30;99.90
37222;DHT22;23119;51.842;-2.230;2022-10-16T03:51:09;11.30;99.90
37222;DHT22;23119;51.842;-2.230;2022-10-16T03:53:37;11.30;99.90
37222;DHT22;23119;51.842;-2.230;2022-10-16T03:56:08;11.20;99.90
37222;DHT22;23119;51.842;-2.230;2022-10-16T03:58:34;11.20;99.90
37222;DHT22;23119;51.842;-2.230;2022-10-16T04:01:02;11.20;99.90
37222;DHT22;23119;51.842;-2.230;2022-10-16T04:03:31;11.10;99.90
37222;DHT22;23119;51.842;-2.230;2022-10-16T04:05:57;11.10;99.90
37222;DHT22;23119;51.842;-2.230;2022-10-16T04:08:27;11.10;99.90
37222;DHT22;23119;51.842;-2.230;2022-10-16T04:10:58;11.10;99.90
37222;DHT22;23119;51.842;-2.230;2022-10-16T04:13:24;11.10;99.90
37222;DHT22;23119;51.842;-2.230;2022-10-16T04:15:54;11.00;99.90
37222;DHT22;23119;51.842;-2.230;2022-10-16T04:18:26;11.00;99.90
37222;DHT22;23119;51.842;-2.230;2022-10-16T04:20:53;11.10;99.90
37222;DHT22;23119;51.842;-2.230;2022-10-16T04:23:22;11.00;99.90
37222;DHT22;23119;51.842;-2.230;2022-10-16T04:25:51;11.00;99.90
37222;DHT22;23119;51.842;-2.230;2022-10-16T04:28:16;11.00;99.90
37222;DHT22;23119;51.842;-2.230;2022-10-16T04:30:42;11.00;99.90
37222;DHT22;23119;51.842;-2.230;2022-10-16T04:33:09;11.10;99.90
37222;DHT22;23119;51.842;-2.230;2022-10-16T04:35:40;11.10;99.90
37222;DHT22;23119;51.842;-2.230;2022-10-16T04:38:06;11.10;99.90
37222;DHT22;23119;51.842;-2.230;2022-10-16T04:40:36;11.10;99.90
37222;DHT22;23119;51.842;-2.230;2022-10-16T04:43:05;11.20;99.90
37222;DHT22;23119;51.842;-2.230;2022-10-16T04:45:33;11.20;99.90
37222;DHT22;23119;51.842;-2.230;2022-10-16T04:48:04;11.10;99.90
37222;DHT22;23119;51.842;-2.230;2022-10-16T04:50:30;11.10;99.90
37222;DHT22;23119;51.842;-2.230;2022-10-16T04:52:56;11.10;99.90
37222;DHT22;23119;51.842;-2.230;2022-10-16T04:55:24;11.00;99.90
37222;DHT22;23119;51.842;-2.230;2022-10-16T04:57:50;10.50;99.90
37222;DHT22;23119;51.842;-2.230;2022-10-16T05:00:22;10.90;99.90
37222;DHT22;23119;51.842;-2.230;2022-10-16T05:02:50;10.80;99.90
37222;DHT22;23119;51.842;-2.230;2022-10-16T05:05:16;10.80;99.90
37222;DHT22;23119;51.842;-2.230;2022-10-16T05:07:45;10.80;99.90
37222;DHT22;23119;51.842;-2.230;2022-10-16T05:10:11;10.80;99.90
37222;DHT22;23119;51.842;-2.230;2022-10-16T05:12:37;10.70;99.90
37222;DHT22;23119;51.842;-2.230;2022-10-16T05:15:03;10.70;99.90
37222;DHT22;23119;51.842;-2.230;2022-10-16T05:17:34;10.60;99.90
37222;DHT22;23119;51.842;-2.230;2022-10-16T05:20:03;10.60;99.90
37222;DHT22;23119;51.842;-2.230;2022-10-16T05:22:38;10.60;99.90
37222;DHT22;23119;51.842;-2.230;2022-10-16T05:25:07;10.50;99.90
37222;DHT22;23119;51.842;-2.230;2022-10-16T05:27:33;10.50;99.90
37222;DHT22;23119;51.842;-2.230;2022-10-16T05:30:01;10.50;99.90
37222;DHT22;23119;51.842;-2.230;2022-10-16T05:32:27;10.50;99.90
37222;DHT22;23119;51.842;-2.230;2022-10-16T05:34:52;10.50;99.90
37222;DHT22;23119;51.842;-2.230;2022-10-16T05:37:21;10.50;99.90
37222;DHT22;23119;51.842;-2.230;2022-10-16T05:39:46;10.50;99.90
37222;DHT22;23119;51.842;-2.230;2022-10-16T05:42:12;10.40;99.90
37222;DHT22;23119;51.842;-2.230;2022-10-16T05:44:38;10.50;99.90
37222;DHT22;23119;51.842;-2.230;2022-10-16T05:47:06;10.40;99.90
37222;DHT22;23119;51.842;-2.230;2022-10-16T05:49:34;10.50;99.90
37222;DHT22;23119;51.842;-2.230;2022-10-16T05:52:03;10.40;99.90
37222;DHT22;23119;51.842;-2.230;2022-10-16T05:54:34;10.40;99.90
37222;DHT22;23119;51.842;-2.230;2022-10-16T05:56:59;10.40;99.90
37222;DHT22;23119;51.842;-2.230;2022-10-16T05:59:25;10.40;99.90
37222;DHT22;23119;51.842;-2.230;2022-10-16T06:01:51;10.40;99.90
37222;DHT22;23119;51.842;-2.230;2022-10-16T06:04:19;10.40;99.90
37222;DHT22;23119;51.842;-2.230;2022-10-16T06:06:47;10.40;99.90
37222;DHT22;23119;51.842;-2.230;2022-10-16T06:09:13;10.40;99.90
37222;DHT22;23119;51.842;-2.230;2022-10-16T06:11:42;10.40;99.90
37222;DHT22;23119;51.842;-2.230;2022-10-16T06:14:19;10.40;99.90
37222;DHT22;23119;51.842;-2.230;2022-10-16T06:16:44;10.30;99.90
37222;DHT22;23119;51.842;-2.230;2022-10-16T06:19:10;10.30;99.90
37222;DHT22;23119;51.842;-2.230;2022-10-16T06:21:39;10.30;99.90
37222;DHT22;23119;51.842;-2.230;2022-10-16T06:24:04;10.30;99.90
37222;DHT22;23119;51.842;-2.230;2022-10-16T06:26:32;10.30;99.90
37222;DHT22;23119;51.842;-2.230;2022-10-16T06:29:04;10.30;99.90
37222;DHT22;23119;51.842;-2.230;2022-10-16T06:31:32;10.30;99.90
37222;DHT22;23119;51.842;-2.230;2022-10-16T06:34:01;10.30;99.90
37222;DHT22;23119;51.842;-2.230;2022-10-16T06:36:30;10.30;99.90
37222;DHT22;23119;51.842;-2.230;2022-10-16T06:38:56;10.30;99.90
37222;DHT22;23119;51.842;-2.230;2022-10-16T06:41:26;10.30;99.90
37222;DHT22;23119;51.842;-2.230;2022-10-16T06:43:54;10.30;99.90
37222;DHT22;23119;51.842;-2.230;2022-10-16T06:46:25;10.40;99.90
37222;DHT22;23119;51.842;-2.230;2022-10-16T06:48:51;10.30;99.90
37222;DHT22;23119;51.842;-2.230;2022-10-16T06:51:22;10.30;99.90
37222;DHT22;23119;51.842;-2.230;2022-10-16T06:53:55;10.40;99.90
37222;DHT22;23119;51.842;-2.230;2022-10-16T06:56:28;10.40;99.90
37222;DHT22;23119;51.842;-2.230;2022-10-16T06:58:58;10.50;99.90
37222;DHT22;23119;51.842;-2.230;2022-10-16T07:01:36;10.50;99.90
37222;DHT22;23119;51.842;-2.230;2022-10-16T07:04:10;10.60;99.90
37222;DHT22;23119;51.842;-2.230;2022-10-16T07:06:38;10.70;99.90
37222;DHT22;23119;51.842;-2.230;2022-10-16T07:09:12;10.70;99.90
37222;DHT22;23119;51.842;-2.230;2022-10-16T07:11:41;10.80;99.90
37222;DHT22;23119;51.842;-2.230;2022-10-16T07:14:17;10.90;99.90
37222;DHT22;23119;51.842;-2.230;2022-10-16T07:16:43;11.00;99.90
37222;DHT22;23119;51.842;-2.230;2022-10-16T07:19:11;11.10;99.90
37222;DHT22;23119;51.842;-2.230;2022-10-16T07:21:38;11.10;99.90
37222;DHT22;23119;51.842;-2.230;2022-10-16T07:24:07;11.20;99.90
37222;DHT22;23119;51.842;-2.230;2022-10-16T07:26:35;11.30;99.90
37222;DHT22;23119;51.842;-2.230;2022-10-16T07:29:01;11.40;99.90
37222;DHT22;23119;51.842;-2.230;2022-10-16T07:31:27;11.50;99.90
37222;DHT22;23119;51.842;-2.230;2022-10-16T07:33:57;11.80;99.90
37222;DHT22;23119;51.842;-2.230;2022-10-16T07:36:26;13.00;99.90
37222;DHT22;23119;51.842;-2.230;2022-10-16T07:38:51;15.10;99.90
37222;DHT22;23119;51.842;-2.230;2022-10-16T07:41:21;17.20;99.90
37222;DHT22;23119;51.842;-2.230;2022-10-16T07:43:52;19.10;99.90
37222;DHT22;23119;51.842;-2.230;2022-10-16T07:46:22;20.90;99.90
37222;DHT22;23119;51.842;-2.230;2022-10-16T07:48:54;22.30;99.90
37222;DHT22;23119;51.842;-2.230;2022-10-16T07:51:22;23.70;99.90
37222;DHT22;23119;51.842;-2.230;2022-10-16T07:53:52;25.00;98.60
37222;DHT22;23119;51.842;-2.230;2022-10-16T07:56:19;26.10;96.80
37222;DHT22;23119;51.842;-2.230;2022-10-16T07:58:56;27.10;95.50
37222;DHT22;23119;51.842;-2.230;2022-10-16T08:01:24;28.10;92.40
37222;DHT22;23119;51.842;-2.230;2022-10-16T08:04:01;29.20;92.40
37222;DHT22;23119;51.842;-2.230;2022-10-16T08:06:29;30.00;89.70
37222;DHT22;23119;51.842;-2.230;2022-10-16T08:09:03;30.60;90.50
37222;DHT22;23119;51.842;-2.230;2022-10-16T08:11:32;31.10;88.30
37222;DHT22;23119;51.842;-2.230;2022-10-16T08:14:10;31.40;82.80
37222;DHT22;23119;51.842;-2.230;2022-10-16T08:16:38;32.00;82.80
37222;DHT22;23119;51.842;-2.230;2022-10-16T08:19:08;32.50;81.90
37222;DHT22;23119;51.842;-2.230;2022-10-16T08:21:37;33.10;80.30
37222;DHT22;23119;51.842;-2.230;2022-10-16T08:24:07;33.40;80.00
37222;DHT22;23119;51.842;-2.230;2022-10-16T08:26:39;33.90;78.10
37222;DHT22;23119;51.842;-2.230;2022-10-16T08:29:05;34.30;74.00
37222;DHT22;23119;51.842;-2.230;2022-10-16T08:31:33;34.50;72.40
37222;DHT22;23119;51.842;-2.230;2022-10-16T08:34:01;34.80;76.50
37222;DHT22;23119;51.842;-2.230;2022-10-16T08:36:32;34.90;74.90
37222;DHT22;23119;51.842;-2.230;2022-10-16T08:39:03;35.10;73.60
37222;DHT22;23119;51.842;-2.230;2022-10-16T08:44:40;35.50;67.20
37222;DHT22;23119;51.842;-2.230;2022-10-16T08:47:29;35.40;72.10
37222;DHT22;23119;51.842;-2.230;2022-10-16T08:50:13;35.50;67.20
37222;DHT22;23119;51.842;-2.230;2022-10-16T08:52:44;35.70;71.30
37222;DHT22;23119;51.842;-2.230;2022-10-16T08:55:46;35.90;70.90
37222;DHT22;23119;51.842;-2.230;2022-10-16T08:58:18;35.80;67.10
37222;DHT22;23119;51.842;-2.230;2022-10-16T09:00:57;36.00;66.40
37222;DHT22;23119;51.842;-2.230;2022-10-16T09:03:36;35.80;66.40
37222;DHT22;23119;51.842;-2.230;2022-10-16T09:09:11;35.70;67.00
37222;DHT22;23119;51.842;-2.230;2022-10-16T09:17:49;35.70;65.80
37222;DHT22;23119;51.842;-2.230;2022-10-16T09:20:26;35.60;64.20
37222;DHT22;23119;51.842;-2.230;2022-10-16T09:23:45;35.50;67.30
37222;DHT22;23119;51.842;-2.230;2022-10-16T09:25:56;35.50;66.20
37222;DHT22;23119;51.842;-2.230;2022-10-16T09:28:22;35.50;65.80
37222;DHT22;23119;51.842;-2.230;2022-10-16T09:30:51;35.30;66.80
37222;DHT22;23119;51.842;-2.230;2022-10-16T09:33:25;35.10;66.80
37222;DHT22;23119;51.842;-2.230;2022-10-16T09:35:56;35.00;66.20
37222;DHT22;23119;51.842;-2.230;2022-10-16T09:38:29;34.70;66.80
37222;DHT22;23119;51.842;-2.230;2022-10-16T09:41:03;34.40;67.00
37222;DHT22;23119;51.842;-2.230;2022-10-16T09:49:04;33.20;67.20
37222;DHT22;23119;51.842;-2.230;2022-10-16T09:51:37;32.50;68.30
37222;DHT22;23119;51.842;-2.230;2022-10-16T09:56:37;31.20;69.30
37222;DHT22;23119;51.842;-2.230;2022-10-16T09:59:17;30.20;70.40
37222;DHT22;23119;51.842;-2.230;2022-10-16T10:01:48;29.30;71.60
37222;DHT22;23119;51.842;-2.230;2022-10-16T10:04:14;28.40;72.70
37222;DHT22;23119;51.842;-2.230;2022-10-16T10:06:45;27.60;73.70
37222;DHT22;23119;51.842;-2.230;2022-10-16T10:11:51;26.10;75.90
37222;DHT22;23119;51.842;-2.230;2022-10-16T10:14:18;25.60;76.60
37222;DHT22;23119;51.842;-2.230;2022-10-16T10:17:06;25.00;77.50
37222;DHT22;23119;51.842;-2.230;2022-10-16T10:19:47;24.50;78.50
37222;DHT22;23119;51.842;-2.230;2022-10-16T10:30:54;22.30;83.50
37222;DHT22;23119;51.842;-2.230;2022-10-16T10:33:38;21.80;84.00
37222;DHT22;23119;51.842;-2.230;2022-10-16T10:36:28;21.40;85.10
37222;DHT22;23119;51.842;-2.230;2022-10-16T10:39:19;20.90;86.20
37222;DHT22;23119;51.842;-2.230;2022-10-16T10:45:32;20.40;88.90
37222;DHT22;23119;51.842;-2.230;2022-10-16T10:50:26;19.80;90.00
37222;DHT22;23119;51.842;-2.230;2022-10-16T10:53:09;19.40;90.50
37222;DHT22;23119;51.842;-2.230;2022-10-16T10:55:48;19.20;90.90
37222;DHT22;23119;51.842;-2.230;2022-10-16T11:01:16;19.10;91.90
37222;DHT22;23119;51.842;-2.230;2022-10-16T11:03:59;19.20;91.90
37222;DHT22;23119;51.842;-2.230;2022-10-16T11:06:43;19.20;92.00
37222;DHT22;23119;51.842;-2.230;2022-10-16T11:09:17;19.30;91.80
37222;DHT22;23119;51.842;-2.230;2022-10-16T11:14:46;18.70;93.00
37222;DHT22;23119;51.842;-2.230;2022-10-16T11:19:52;18.40;93.50
37222;DHT22;23119;51.842;-2.230;2022-10-16T11:23:09;18.30;93.90
37222;DHT22;23119;51.842;-2.230;2022-10-16T11:25:39;17.80;94.70
37222;DHT22;23119;51.842;-2.230;2022-10-16T11:28:20;17.80;94.60
37222;DHT22;23119;51.842;-2.230;2022-10-16T11:31:08;17.70;95.50
37222;DHT22;23119;51.842;-2.230;2022-10-16T11:41:50;17.30;96.60
37222;DHT22;23119;51.842;-2.230;2022-10-16T11:47:34;17.30;96.60
37222;DHT22;23119;51.842;-2.230;2022-10-16T11:50:17;17.30;96.40
37222;DHT22;23119;51.842;-2.230;2022-10-16T11:52:55;17.50;96.30
37222;DHT22;23119;51.842;-2.230;2022-10-16T11:55:36;17.70;96.20
37222;DHT22;23119;51.842;-2.230;2022-10-16T11:58:20;17.60;96.30
37222;DHT22;23119;51.842;-2.230;2022-10-16T12:00:53;17.70;96.20
37222;DHT22;23119;51.842;-2.230;2022-10-16T12:03:39;17.60;95.90
37222;DHT22;23119;51.842;-2.230;2022-10-16T12:09:00;17.80;96.20
37222;DHT22;23119;51.842;-2.230;2022-10-16T12:19:31;17.90;95.80
37222;DHT22;23119;51.842;-2.230;2022-10-16T12:22:01;17.80;95.80
37222;DHT22;23119;51.842;-2.230;2022-10-16T12:24:39;17.70;95.80
37222;DHT22;23119;51.842;-2.230;2022-10-16T12:27:23;17.80;95.90
37222;DHT22;23119;51.842;-2.230;2022-10-16T12:30:03;17.70;95.50
37222;DHT22;23119;51.842;-2.230;2022-10-16T12:32:36;17.70;95.70
37222;DHT22;23119;51.842;-2.230;2022-10-16T12:35:06;17.60;95.70
37222;DHT22;23119;51.842;-2.230;2022-10-16T12:37:45;17.60;95.90
37222;DHT22;23119;51.842;-2.230;2022-10-16T12:40:32;17.60;95.80
37222;DHT22;23119;51.842;-2.230;2022-10-16T12:43:11;17.60;95.70
37222;DHT22;23119;51.842;-2.230;2022-10-16T12:45:40;17.80;95.40
37222;DHT22;23119;51.842;-2.230;2022-10-16T12:48:26;17.70;95.90
37222;DHT22;23119;51.842;-2.230;2022-10-16T12:50:52;17.80;95.70
37222;DHT22;23119;51.842;-2.230;2022-10-16T12:53:26;17.80;95.60
37222;DHT22;23119;51.842;-2.230;2022-10-16T12:56:03;17.90;95.50
37222;DHT22;23119;51.842;-2.230;2022-10-16T12:58:48;17.90;95.20
37222;DHT22;23119;51.842;-2.230;2022-10-16T13:06:54;17.70;94.10
37222;DHT22;23119;51.842;-2.230;2022-10-16T13:09:40;17.60;94.30
37222;DHT22;23119;51.842;-2.230;2022-10-16T13:18:02;17.80;94.40
37222;DHT22;23119;51.842;-2.230;2022-10-16T13:20:40;17.80;94.80
37222;DHT22;23119;51.842;-2.230;2022-10-16T13:23:29;17.90;94.70
37222;DHT22;23119;51.842;-2.230;2022-10-16T13:28:37;18.00;93.70
37222;DHT22;23119;51.842;-2.230;2022-10-16T13:31:15;18.10;94.00
37222;DHT22;23119;51.842;-2.230;2022-10-16T13:33:50;18.20;93.60
37222;DHT22;23119;51.842;-2.230;2022-10-16T13:42:06;18.30;93.20
37222;DHT22;23119;51.842;-2.230;2022-10-16T13:44:46;18.40;93.50
37222;DHT22;23119;51.842;-2.230;2022-10-16T13:47:30;18.40;93.30
37222;DHT22;23119;51.842;-2.230;2022-10-16T13:50:04;18.40;93.10
37222;DHT22;23119;51.842;-2.230;2022-10-16T13:52:35;18.40;93.20
37222;DHT22;23119;51.842;-2.230;2022-10-16T13:55:10;18.40;93.20
37222;DHT22;23119;51.842;-2.230;2022-10-16T13:57:44;18.30;93.00
37222;DHT22;23119;51.842;-2.230;2022-10-16T14:00:26;18.30;93.20
37222;DHT22;23119;51.842;-2.230;2022-10-16T14:03:15;18.20;93.10
37222;DHT22;23119;51.842;-2.230;2022-10-16T14:05:59;18.20;93.20
37222;DHT22;23119;51.842;-2.230;2022-10-16T14:08:29;18.20;93.10
37222;DHT22;23119;51.842;-2.230;2022-10-16T14:11:02;18.20;93.30
37222;DHT22;23119;51.842;-2.230;2022-10-16T14:13:39;18.20;93.40
37222;DHT22;23119;51.842;-2.230;2022-10-16T14:16:20;18.20;93.60
37222;DHT22;23119;51.842;-2.230;2022-10-16T14:19:00;18.10;93.60
37222;DHT22;23119;51.842;-2.230;2022-10-16T14:21:29;18.20;93.80
37222;DHT22;23119;51.842;-2.230;2022-10-16T14:23:58;18.20;94.00
37222;DHT22;23119;51.842;-2.230;2022-10-16T14:26:26;18.30;94.20
37222;DHT22;23119;51.842;-2.230;2022-10-16T14:29:15;18.30;94.20
37222;DHT22;23119;51.842;-2.230;2022-10-16T14:32:00;18.30;94.00
37222;DHT22;23119;51.842;-2.230;2022-10-16T14:34:38;18.20;94.10
37222;DHT22;23119;51.842;-2.230;2022-10-16T14:37:29;18.20;94.20
37222;DHT22;23119;51.842;-2.230;2022-10-16T14:40:01;18.20;94.30
37222;DHT22;23119;51.842;-2.230;2022-10-16T14:42:28;18.10;94.20
37222;DHT22;23119;51.842;-2.230;2022-10-16T14:44:56;18.20;94.40
37222;DHT22;23119;51.842;-2.230;2022-10-16T14:47:27;18.10;94.00
37222;DHT22;23119;51.842;-2.230;2022-10-16T14:49:55;18.10;94.00
37222;DHT22;23119;51.842;-2.230;2022-10-16T14:52:26;18.00;94.00
37222;DHT22;23119;51.842;-2.230;2022-10-16T14:54:54;18.10;94.00
37222;DHT22;23119;51.842;-2.230;2022-10-16T14:57:24;17.90;93.60
37222;DHT22;23119;51.842;-2.230;2022-10-16T14:59:55;17.90;93.70
37222;DHT22;23119;51.842;-2.230;2022-10-16T15:02:28;17.80;93.90
37222;DHT22;23119;51.842;-2.230;2022-10-16T15:04:56;17.70;94.00
37222;DHT22;23119;51.842;-2.230;2022-10-16T15:07:25;17.70;94.30
37222;DHT22;23119;51.842;-2.230;2022-10-16T15:09:54;17.60;94.50
37222;DHT22;23119;51.842;-2.230;2022-10-16T15:12:22;17.60;94.60
37222;DHT22;23119;51.842;-2.230;2022-10-16T15:15:35;17.60;94.80
37222;DHT22;23119;51.842;-2.230;2022-10-16T15:18:04;17.50;94.90
37222;DHT22;23119;51.842;-2.230;2022-10-16T15:20:50;17.50;95.00
37222;DHT22;23119;51.842;-2.230;2022-10-16T15:23:21;17.60;95.10
37222;DHT22;23119;51.842;-2.230;2022-10-16T15:25:52;17.60;95.20
37222;DHT22;23119;51.842;-2.230;2022-10-16T15:28:19;17.50;95.10
37222;DHT22;23119;51.842;-2.230;2022-10-16T15:30:55;17.50;95.30
37222;DHT22;23119;51.842;-2.230;2022-10-16T15:33:24;17.40;95.50
37222;DHT22;23119;51.842;-2.230;2022-10-16T15:35:57;17.40;95.60
37222;DHT22;23119;51.842;-2.230;2022-10-16T15:38:30;17.30;95.80
37222;DHT22;23119;51.842;-2.230;2022-10-16T15:40:56;17.20;95.80
37222;DHT22;23119;51.842;-2.230;2022-10-16T15:43:28;17.20;95.80
37222;DHT22;23119;51.842;-2.230;2022-10-16T15:46:10;17.30;95.90
37222;DHT22;23119;51.842;-2.230;2022-10-16T15:48:39;17.20;96.20
37222;DHT22;23119;51.842;-2.230;2022-10-16T15:51:08;17.10;96.50
37222;DHT22;23119;51.842;-2.230;2022-10-16T15:53:35;17.00;96.60
37222;DHT22;23119;51.842;-2.230;2022-10-16T15:56:03;16.90;96.80
37222;DHT22;23119;51.842;-2.230;2022-10-16T15:58:31;16.80;97.20
37222;DHT22;23119;51.842;-2.230;2022-10-16T16:01:00;16.70;97.30
37222;DHT22;23119;51.842;-2.230;2022-10-16T16:03:28;16.70;97.50
37222;DHT22;23119;51.842;-2.230;2022-10-16T16:05:57;16.70;98.40
37222;DHT22;23119;51.842;-2.230;2022-10-16T16:08:25;16.60;98.20
37222;DHT22;23119;51.842;-2.230;2022-10-16T16:11:06;16.60;98.80
37222;DHT22;23119;51.842;-2.230;2022-10-16T16:13:32;16.40;99.50
37222;DHT22;23119;51.842;-2.230;2022-10-16T16:15:58;16.40;99.50
37222;DHT22;23119;51.842;-2.230;2022-10-16T16:18:29;16.30;99.90
37222;DHT22;23119;51.842;-2.230;2022-10-16T16:20:58;16.30;99.90
37222;DHT22;23119;51.842;-2.230;2022-10-16T16:23:26;16.20;99.90
37222;DHT22;23119;51.842;-2.230;2022-10-16T16:26:06;16.20;99.90
37222;DHT22;23119;51.842;-2.230;2022-10-16T16:28:34;16.20;99.90
37222;DHT22;23119;51.842;-2.230;2022-10-16T16:31:03;16.20;99.90
37222;DHT22;23119;51.842;-2.230;2022-10-16T16:33:32;16.10;99.90
37222;DHT22;23119;51.842;-2.230;2022-10-16T16:36:03;16.10;99.90
37222;DHT22;23119;51.842;-2.230;2022-10-16T16:38:29;16.00;99.90
37222;DHT22;23119;51.842;-2.230;2022-10-16T16:40:55;16.00;99.90
37222;DHT22;23119;51.842;-2.230;2022-10-16T16:43:25;16.00;99.90
37222;DHT22;23119;51.842;-2.230;2022-10-16T16:45:59;16.00;99.90
37222;DHT22;23119;51.842;-2.230;2022-10-16T16:48:26;15.90;99.90
37222;DHT22;23119;51.842;-2.230;2022-10-16T16:50:54;15.90;99.90
37222;DHT22;23119;51.842;-2.230;2022-10-16T16:53:22;15.90;99.90
37222;DHT22;23119;51.842;-2.230;2022-10-16T16:55:48;15.80;99.90
37222;DHT22;23119;51.842;-2.230;2022-10-16T16:58:16;15.80;99.90
37222;DHT22;23119;51.842;-2.230;2022-10-16T17:00:50;15.70;99.90
37222;DHT22;23119;51.842;-2.230;2022-10-16T17:03:21;15.70;99.90
37222;DHT22;23119;51.842;-2.230;2022-10-16T17:06:04;15.70;99.90
37222;DHT22;23119;51.842;-2.230;2022-10-16T17:08:30;15.60;99.90
37222;DHT22;23119;51.842;-2.230;2022-10-16T17:11:01;15.70;99.90
37222;DHT22;23119;51.842;-2.230;2022-10-16T17:13:34;15.60;99.90
37222;DHT22;23119;51.842;-2.230;2022-10-16T17:16:02;15.60;99.90
37222;DHT22;23119;51.842;-2.230;2022-10-16T17:18:34;15.60;99.90
37222;DHT22;23119;51.842;-2.230;2022-10-16T17:21:18;15.50;99.90
37222;DHT22;23119;51.842;-2.230;2022-10-16T17:23:53;15.50;99.90
37222;DHT22;23119;51.842;-2.230;2022-10-16T17:26:22;15.50;99.90
37222;DHT22;23119;51.842;-2.230;2022-10-16T17:29:00;15.50;99.90
37222;DHT22;23119;51.842;-2.230;2022-10-16T17:31:46;15.50;99.90
37222;DHT22;23119;51.842;-2.230;2022-10-16T17:34:14;15.50;99.90